EJU57UJ HEMA-EDDB
Flight info
| Callsign | EJU57UJ |
|---|---|
| Flight time | N/A |
| Altitude | 34000 |
| Route | SIBRI1A SIBRI V730 MEMPO L300 LXR P751 AST W8 CVO A16 RASDA M855 TOMBI UM855 AYT UQ26 OSDAN/N0446F360 UQ26 TUDBU DCT UPAMA DCT TIXIP DCT BUDOP DCT PATAK DCT LALES DCT BEFRE T204 NUKRO NUKRO1R |
| Aircraft | A319/M-SDE2E3FGHIJ1RWXYZ/LB1 |
Departure
| Time | 2026-04-28 15:18 |
|---|---|
| Airport | Marsa Alam International Airport (HEMA) |
Arrival
| Time | N/A |
|---|---|
| Airport | Berlin Brandenburg Airport (EDDB) |
| Time | Latitude | Longitude | Altitude | Speed | Heading |
|---|---|---|---|---|---|
| 2026-04-28 14:46 | 25.55438 | 34.59130 | 243 ft | 0 kts | 60° |
| 2026-04-28 15:08 | 25.55430 | 34.59116 | 243 ft | 2 kts | 59° |
| 2026-04-28 15:09 | 25.55423 | 34.59101 | 244 ft | 2 kts | 60° |
| 2026-04-28 15:09 | 25.55415 | 34.59087 | 245 ft | 2 kts | 60° |
| 2026-04-28 15:09 | 25.55407 | 34.59073 | 245 ft | 2 kts | 59° |
| 2026-04-28 15:09 | 25.55400 | 34.59059 | 246 ft | 2 kts | 60° |
| 2026-04-28 15:10 | 25.55395 | 34.59045 | 247 ft | 2 kts | 105° |
| 2026-04-28 15:10 | 25.55402 | 34.59033 | 248 ft | 1 kts | 147° |
| 2026-04-28 15:10 | 25.55413 | 34.59027 | 248 ft | 0 kts | 148° |
| 2026-04-28 15:10 | 25.55418 | 34.59024 | 248 ft | 0 kts | 149° |
| 2026-04-28 15:12 | 25.55414 | 34.59026 | 248 ft | 1 kts | 149° |
| 2026-04-28 15:12 | 25.55391 | 34.59041 | 248 ft | 7 kts | 152° |
| 2026-04-28 15:13 | 25.55341 | 34.59071 | 247 ft | 8 kts | 150° |
| 2026-04-28 15:13 | 25.55282 | 34.59108 | 246 ft | 10 kts | 150° |
| 2026-04-28 15:13 | 25.55211 | 34.59130 | 246 ft | 10 kts | 208° |
| 2026-04-28 15:13 | 25.55175 | 34.59073 | 248 ft | 8 kts | 241° |
| 2026-04-28 15:14 | 25.55151 | 34.59027 | 251 ft | 5 kts | 240° |
| 2026-04-28 15:14 | 25.55119 | 34.58998 | 252 ft | 6 kts | 191° |
| 2026-04-28 15:14 | 25.55063 | 34.59019 | 253 ft | 10 kts | 150° |
| 2026-04-28 15:14 | 25.54990 | 34.59067 | 252 ft | 12 kts | 149° |
| 2026-04-28 15:15 | 25.54909 | 34.59119 | 252 ft | 13 kts | 150° |
| 2026-04-28 15:15 | 25.54823 | 34.59175 | 251 ft | 14 kts | 149° |
| 2026-04-28 15:15 | 25.54731 | 34.59233 | 250 ft | 15 kts | 151° |
| 2026-04-28 15:15 | 25.54647 | 34.59261 | 249 ft | 12 kts | 200° |
| 2026-04-28 15:16 | 25.54612 | 34.59216 | 252 ft | 0 kts | 241° |
| 2026-04-28 15:16 | 25.54613 | 34.59217 | 252 ft | 0 kts | 241° |
| 2026-04-28 15:16 | 25.54614 | 34.59219 | 252 ft | 0 kts | 241° |
| 2026-04-28 15:16 | 25.54602 | 34.59194 | 253 ft | 6 kts | 241° |
| 2026-04-28 15:17 | 25.54573 | 34.59136 | 256 ft | 8 kts | 246° |
| 2026-04-28 15:17 | 25.54580 | 34.59099 | 257 ft | 0 kts | 330° |
| 2026-04-28 15:17 | 25.54709 | 34.59018 | 260 ft | 53 kts | 330° |
| 2026-04-28 15:17 | 25.55213 | 34.58692 | 266 ft | 113 kts | 330° |
| 2026-04-28 15:18 | 25.56047 | 34.58159 | 301 ft | 158 kts | 331° |
| 2026-04-28 15:18 | 25.56975 | 34.57583 | 935 ft | 148 kts | 333° |
| 2026-04-28 15:18 | 25.57884 | 34.57005 | 1376 ft | 158 kts | 333° |
| 2026-04-28 15:18 | 25.58886 | 34.56366 | 1772 ft | 175 kts | 332° |
| 2026-04-28 15:19 | 25.59991 | 34.55660 | 2180 ft | 189 kts | 332° |
| 2026-04-28 15:19 | 25.61184 | 34.54894 | 2443 ft | 209 kts | 331° |
| 2026-04-28 15:19 | 25.62479 | 34.54058 | 2783 ft | 225 kts | 331° |
| 2026-04-28 15:19 | 25.63884 | 34.53152 | 3113 ft | 241 kts | 331° |
| 2026-04-28 15:20 | 25.65369 | 34.52194 | 3625 ft | 249 kts | 331° |
| 2026-04-28 15:20 | 25.66845 | 34.51243 | 4293 ft | 249 kts | 330° |
| 2026-04-28 15:20 | 25.68352 | 34.50275 | 4933 ft | 250 kts | 330° |
| 2026-04-28 15:20 | 25.69870 | 34.49300 | 5538 ft | 252 kts | 330° |
| 2026-04-28 15:21 | 25.71378 | 34.48328 | 6100 ft | 254 kts | 329° |
| 2026-04-28 15:21 | 25.72918 | 34.47336 | 6636 ft | 256 kts | 329° |
| 2026-04-28 15:21 | 25.74451 | 34.46350 | 7160 ft | 259 kts | 328° |
| 2026-04-28 15:21 | 25.76022 | 34.45336 | 7687 ft | 261 kts | 328° |
| 2026-04-28 15:22 | 25.77601 | 34.44317 | 8206 ft | 263 kts | 328° |
| 2026-04-28 15:22 | 25.79168 | 34.43281 | 8714 ft | 265 kts | 323° |
| 2026-04-28 15:22 | 25.80367 | 34.41784 | 9141 ft | 265 kts | 292° |
| 2026-04-28 15:22 | 25.80661 | 34.39765 | 9604 ft | 268 kts | 268° |
| 2026-04-28 15:23 | 25.80522 | 34.37694 | 10070 ft | 271 kts | 268° |
| 2026-04-28 15:23 | 25.80409 | 34.35566 | 10326 ft | 283 kts | 269° |
| 2026-04-28 15:23 | 25.80315 | 34.33357 | 10563 ft | 296 kts | 268° |
| 2026-04-28 15:23 | 25.80230 | 34.31026 | 10801 ft | 310 kts | 269° |
| 2026-04-28 15:24 | 25.80148 | 34.28574 | 11035 ft | 323 kts | 269° |
| 2026-04-28 15:24 | 25.80068 | 34.26065 | 11307 ft | 334 kts | 268° |
| 2026-04-28 15:24 | 25.79988 | 34.23472 | 11765 ft | 338 kts | 268° |
| 2026-04-28 15:24 | 25.79908 | 34.20867 | 12253 ft | 340 kts | 268° |
| 2026-04-28 15:25 | 25.79829 | 34.18230 | 12732 ft | 344 kts | 268° |
| 2026-04-28 15:25 | 25.79750 | 34.15572 | 13221 ft | 346 kts | 268° |
| 2026-04-28 15:25 | 25.79670 | 34.12918 | 13706 ft | 348 kts | 268° |
| 2026-04-28 15:25 | 25.79589 | 34.10239 | 14180 ft | 351 kts | 268° |
| 2026-04-28 15:26 | 25.79507 | 34.07525 | 14660 ft | 353 kts | 268° |
| 2026-04-28 15:26 | 25.79424 | 34.04796 | 15165 ft | 355 kts | 268° |
| 2026-04-28 15:26 | 25.79341 | 34.02097 | 15681 ft | 356 kts | 268° |
| 2026-04-28 15:26 | 25.79256 | 33.99344 | 16186 ft | 358 kts | 268° |
| 2026-04-28 15:27 | 25.79170 | 33.96581 | 16659 ft | 359 kts | 268° |
| 2026-04-28 15:27 | 25.79084 | 33.93810 | 17126 ft | 360 kts | 268° |
| 2026-04-28 15:27 | 25.78996 | 33.91034 | 17583 ft | 362 kts | 267° |
| 2026-04-28 15:27 | 25.78909 | 33.88282 | 18036 ft | 363 kts | 267° |
| 2026-04-28 15:28 | 25.78820 | 33.85477 | 18501 ft | 364 kts | 267° |
| 2026-04-28 15:28 | 25.78730 | 33.82655 | 18952 ft | 366 kts | 267° |
| 2026-04-28 15:28 | 25.78640 | 33.79857 | 19389 ft | 368 kts | 267° |
| 2026-04-28 15:28 | 25.78548 | 33.77005 | 19832 ft | 369 kts | 267° |
| 2026-04-28 15:29 | 25.78458 | 33.74189 | 20265 ft | 371 kts | 267° |
| 2026-04-28 15:29 | 25.78364 | 33.71310 | 20686 ft | 373 kts | 267° |
| 2026-04-28 15:29 | 25.78270 | 33.68446 | 21098 ft | 375 kts | 267° |
| 2026-04-28 15:29 | 25.78175 | 33.65558 | 21511 ft | 377 kts | 267° |
| 2026-04-28 15:30 | 25.78078 | 33.62655 | 21914 ft | 379 kts | 266° |
| 2026-04-28 15:30 | 25.77980 | 33.59734 | 22311 ft | 381 kts | 266° |
| 2026-04-28 15:30 | 25.77882 | 33.56824 | 22698 ft | 383 kts | 266° |
| 2026-04-28 15:30 | 25.77782 | 33.53883 | 23082 ft | 384 kts | 266° |
| 2026-04-28 15:31 | 25.77680 | 33.50890 | 23460 ft | 386 kts | 266° |
| 2026-04-28 15:31 | 25.77577 | 33.47916 | 23826 ft | 388 kts | 266° |
| 2026-04-28 15:31 | 25.77475 | 33.44958 | 24182 ft | 390 kts | 266° |
| 2026-04-28 15:31 | 25.77370 | 33.41948 | 24535 ft | 391 kts | 266° |
| 2026-04-28 15:32 | 25.77264 | 33.38926 | 24849 ft | 393 kts | 266° |
| 2026-04-28 15:32 | 25.77157 | 33.35898 | 25170 ft | 393 kts | 267° |
| 2026-04-28 15:32 | 25.77050 | 33.32906 | 25501 ft | 394 kts | 266° |
| 2026-04-28 15:32 | 25.76941 | 33.29862 | 25823 ft | 394 kts | 266° |
| 2026-04-28 15:33 | 25.76833 | 33.26835 | 26009 ft | 398 kts | 266° |
| 2026-04-28 15:33 | 25.76720 | 33.23758 | 26239 ft | 401 kts | 267° |
| 2026-04-28 15:33 | 25.76608 | 33.20666 | 26544 ft | 401 kts | 267° |
| 2026-04-28 15:33 | 25.76497 | 33.17597 | 26843 ft | 400 kts | 267° |
| 2026-04-28 15:34 | 25.76383 | 33.14523 | 27118 ft | 400 kts | 267° |
| 2026-04-28 15:34 | 25.76270 | 33.11470 | 27381 ft | 400 kts | 267° |
| 2026-04-28 15:34 | 25.76156 | 33.08374 | 27635 ft | 400 kts | 267° |
| 2026-04-28 15:34 | 25.76043 | 33.05291 | 27882 ft | 400 kts | 267° |
| 2026-04-28 15:35 | 25.75926 | 33.02239 | 28142 ft | 399 kts | 267° |
| 2026-04-28 15:35 | 25.75694 | 32.96127 | 28796 ft | 395 kts | 267° |
| 2026-04-28 15:35 | 25.75574 | 32.93136 | 29112 ft | 392 kts | 268° |
| 2026-04-28 15:36 | 25.75459 | 32.90123 | 29427 ft | 390 kts | 268° |
| 2026-04-28 15:36 | 25.75347 | 32.87153 | 29736 ft | 388 kts | 268° |
| 2026-04-28 15:36 | 25.75257 | 32.84166 | 30041 ft | 385 kts | 271° |
| 2026-04-28 15:36 | 25.75492 | 32.81205 | 30333 ft | 384 kts | 278° |
| 2026-04-28 15:37 | 25.76084 | 32.78341 | 30622 ft | 384 kts | 284° |
| 2026-04-28 15:37 | 25.77019 | 32.75562 | 30901 ft | 384 kts | 291° |
| 2026-04-28 15:37 | 25.78264 | 32.72982 | 31171 ft | 386 kts | 297° |
| 2026-04-28 15:37 | 25.79839 | 32.70546 | 31441 ft | 388 kts | 302° |
| 2026-04-28 15:38 | 25.81521 | 32.68256 | 31718 ft | 385 kts | 303° |
| 2026-04-28 15:38 | 25.83231 | 32.65957 | 31991 ft | 382 kts | 303° |
| 2026-04-28 15:38 | 25.84924 | 32.63689 | 32228 ft | 380 kts | 303° |
| 2026-04-28 15:38 | 25.86602 | 32.61443 | 32423 ft | 379 kts | 302° |
| 2026-04-28 15:39 | 25.88275 | 32.59202 | 32591 ft | 378 kts | 302° |
| 2026-04-28 15:39 | 25.89946 | 32.56971 | 32761 ft | 378 kts | 302° |
| 2026-04-28 15:39 | 25.91637 | 32.54709 | 32935 ft | 376 kts | 302° |
| 2026-04-28 15:39 | 25.93303 | 32.52477 | 33108 ft | 375 kts | 302° |
| 2026-04-28 15:40 | 25.94964 | 32.50255 | 33288 ft | 374 kts | 302° |
| 2026-04-28 15:40 | 25.96620 | 32.48040 | 33435 ft | 374 kts | 302° |
| 2026-04-28 15:40 | 25.98280 | 32.45820 | 33570 ft | 375 kts | 302° |
| 2026-04-28 15:40 | 25.99946 | 32.43589 | 33708 ft | 375 kts | 302° |
| 2026-04-28 15:41 | 26.01609 | 32.41364 | 33829 ft | 375 kts | 302° |
| 2026-04-28 15:41 | 26.03260 | 32.39153 | 33910 ft | 376 kts | 302° |
| 2026-04-28 15:41 | 26.06637 | 32.34620 | 33949 ft | 383 kts | 301° |
| 2026-04-28 15:42 | 26.10002 | 32.30113 | 33935 ft | 374 kts | 301° |
| 2026-04-28 15:42 | 26.13295 | 32.25688 | 33935 ft | 373 kts | 301° |
| 2026-04-28 15:43 | 26.16600 | 32.21244 | 33909 ft | 372 kts | 301° |
| 2026-04-28 15:43 | 26.19895 | 32.16802 | 33901 ft | 372 kts | 301° |
| 2026-04-28 15:44 | 26.23186 | 32.12370 | 33905 ft | 372 kts | 301° |
| 2026-04-28 15:44 | 26.26467 | 32.07949 | 33903 ft | 372 kts | 301° |
| 2026-04-28 15:45 | 26.29757 | 32.03505 | 33900 ft | 372 kts | 301° |
| 2026-04-28 15:45 | 26.33056 | 31.99046 | 33899 ft | 372 kts | 301° |
| 2026-04-28 15:46 | 26.36353 | 31.94585 | 33899 ft | 372 kts | 301° |
| 2026-04-28 15:46 | 26.39632 | 31.90149 | 33904 ft | 372 kts | 301° |
| 2026-04-28 15:47 | 26.42918 | 31.85696 | 33905 ft | 372 kts | 301° |
| 2026-04-28 15:47 | 26.46203 | 31.81237 | 33904 ft | 373 kts | 301° |
| 2026-04-28 15:48 | 26.49475 | 31.76793 | 33899 ft | 373 kts | 301° |
| 2026-04-28 15:48 | 26.52778 | 31.72309 | 33896 ft | 373 kts | 301° |
| 2026-04-28 15:49 | 26.56073 | 31.67828 | 33903 ft | 373 kts | 301° |
| 2026-04-28 15:49 | 26.59349 | 31.63365 | 33913 ft | 373 kts | 301° |
| 2026-04-28 15:50 | 26.62627 | 31.58890 | 33923 ft | 374 kts | 302° |
| 2026-04-28 15:50 | 26.65917 | 31.54404 | 33929 ft | 374 kts | 302° |
| 2026-04-28 15:51 | 26.69222 | 31.49895 | 33929 ft | 374 kts | 302° |
| 2026-04-28 15:51 | 26.72500 | 31.45405 | 33934 ft | 374 kts | 302° |
| 2026-04-28 15:52 | 26.75796 | 31.40893 | 33948 ft | 374 kts | 302° |
| 2026-04-28 15:52 | 26.79096 | 31.36370 | 33966 ft | 375 kts | 302° |
| 2026-04-28 15:53 | 26.82371 | 31.31878 | 33991 ft | 375 kts | 302° |
| 2026-04-28 15:53 | 26.85663 | 31.27362 | 34010 ft | 375 kts | 302° |
| 2026-04-28 15:54 | 26.88948 | 31.22835 | 34021 ft | 375 kts | 302° |
| 2026-04-28 15:54 | 26.92251 | 31.18292 | 34035 ft | 375 kts | 302° |
| 2026-04-28 15:55 | 26.95540 | 31.13751 | 34042 ft | 375 kts | 302° |
| 2026-04-28 15:55 | 26.99344 | 31.09662 | 34054 ft | 389 kts | 314° |
| 2026-04-28 15:56 | 27.04101 | 31.06570 | 34060 ft | 406 kts | 326° |
| 2026-04-28 15:56 | 27.09655 | 31.04781 | 34064 ft | 427 kts | 340° |
| 2026-04-28 15:57 | 27.12681 | 31.04488 | 34065 ft | 439 kts | 348° |
| 2026-04-28 15:57 | 27.15770 | 31.04640 | 34067 ft | 448 kts | 353° |
| 2026-04-28 15:57 | 27.21932 | 31.05303 | 34062 ft | 443 kts | 354° |
| 2026-04-28 15:58 | 27.28069 | 31.05997 | 34056 ft | 441 kts | 354° |
| 2026-04-28 15:58 | 27.34171 | 31.06669 | 34057 ft | 440 kts | 354° |
| 2026-04-28 15:59 | 27.40251 | 31.07352 | 34057 ft | 440 kts | 354° |
| 2026-04-28 15:59 | 27.46357 | 31.08028 | 34059 ft | 439 kts | 354° |
| 2026-04-28 16:00 | 27.52439 | 31.08701 | 34061 ft | 439 kts | 354° |
| 2026-04-28 16:00 | 27.58517 | 31.09375 | 34061 ft | 439 kts | 354° |
| 2026-04-28 16:01 | 27.64592 | 31.10051 | 34060 ft | 439 kts | 354° |
| 2026-04-28 16:01 | 27.70648 | 31.10725 | 34057 ft | 439 kts | 354° |
| 2026-04-28 16:02 | 27.76723 | 31.11402 | 34056 ft | 439 kts | 354° |
| 2026-04-28 16:02 | 27.82815 | 31.12082 | 34055 ft | 439 kts | 354° |
| 2026-04-28 16:03 | 27.88883 | 31.12759 | 34052 ft | 439 kts | 354° |
| 2026-04-28 16:03 | 27.94955 | 31.13438 | 34047 ft | 439 kts | 354° |
| 2026-04-28 16:04 | 28.01050 | 31.14119 | 34042 ft | 439 kts | 354° |
| 2026-04-28 16:04 | 28.07106 | 31.14797 | 34048 ft | 439 kts | 354° |
| 2026-04-28 16:05 | 28.13206 | 31.15478 | 34081 ft | 438 kts | 355° |
| 2026-04-28 16:05 | 28.19262 | 31.16153 | 34071 ft | 438 kts | 355° |
| 2026-04-28 16:06 | 28.25326 | 31.16831 | 34027 ft | 438 kts | 355° |
| 2026-04-28 16:06 | 28.31413 | 31.17513 | 34015 ft | 438 kts | 355° |
| 2026-04-28 16:07 | 28.37497 | 31.18195 | 34013 ft | 438 kts | 355° |
| 2026-04-28 16:08 | 28.46602 | 31.19219 | 34015 ft | 438 kts | 355° |
| 2026-04-28 16:08 | 28.52640 | 31.19898 | 34016 ft | 438 kts | 355° |
| 2026-04-28 16:09 | 28.61764 | 31.20925 | 34012 ft | 438 kts | 355° |
| 2026-04-28 16:10 | 28.70846 | 31.21951 | 34005 ft | 437 kts | 355° |
| 2026-04-28 16:10 | 28.79922 | 31.23044 | 33999 ft | 437 kts | 356° |
| 2026-04-28 16:11 | 28.92052 | 31.24517 | 33995 ft | 437 kts | 356° |
| 2026-04-28 16:12 | 29.01106 | 31.25612 | 33994 ft | 437 kts | 356° |
| 2026-04-28 16:13 | 29.10191 | 31.26715 | 33990 ft | 437 kts | 356° |
| 2026-04-28 16:14 | 29.22304 | 31.28188 | 33983 ft | 437 kts | 356° |
| 2026-04-28 16:15 | 29.34379 | 31.29659 | 33980 ft | 438 kts | 356° |
| 2026-04-28 16:15 | 29.40466 | 31.30402 | 33980 ft | 438 kts | 356° |
| 2026-04-28 16:16 | 29.49552 | 31.31514 | 33981 ft | 438 kts | 356° |
| 2026-04-28 16:17 | 29.58654 | 31.32630 | 33983 ft | 438 kts | 356° |
| 2026-04-28 16:17 | 29.64708 | 31.33373 | 33983 ft | 438 kts | 356° |
| 2026-04-28 16:18 | 29.70752 | 31.34116 | 33981 ft | 438 kts | 356° |
| 2026-04-28 16:18 | 29.76829 | 31.34864 | 33978 ft | 438 kts | 356° |
| 2026-04-28 16:19 | 29.82881 | 31.35609 | 33977 ft | 438 kts | 356° |
| 2026-04-28 16:19 | 29.88976 | 31.36360 | 33979 ft | 439 kts | 356° |
| 2026-04-28 16:20 | 29.95042 | 31.37109 | 33982 ft | 439 kts | 356° |
| 2026-04-28 16:20 | 30.01111 | 31.37859 | 33985 ft | 439 kts | 356° |
| 2026-04-28 16:21 | 30.07177 | 31.38343 | 33983 ft | 432 kts | 351° |
| 2026-04-28 16:21 | 30.13136 | 31.38065 | 33989 ft | 425 kts | 345° |
| 2026-04-28 16:22 | 30.18974 | 31.37120 | 34000 ft | 422 kts | 342° |
| 2026-04-28 16:22 | 30.24763 | 31.36044 | 33990 ft | 423 kts | 342° |
| 2026-04-28 16:23 | 30.30617 | 31.34962 | 33972 ft | 424 kts | 342° |
| 2026-04-28 16:23 | 30.36429 | 31.33894 | 33967 ft | 424 kts | 342° |
| 2026-04-28 16:24 | 30.42256 | 31.32822 | 33967 ft | 424 kts | 342° |
| 2026-04-28 16:24 | 30.48095 | 31.31748 | 33968 ft | 424 kts | 342° |
| 2026-04-28 16:25 | 30.53916 | 31.30682 | 33970 ft | 424 kts | 342° |
| 2026-04-28 16:25 | 30.59768 | 31.29606 | 33971 ft | 424 kts | 342° |
| 2026-04-28 16:26 | 30.65594 | 31.28534 | 33973 ft | 424 kts | 342° |
| 2026-04-28 16:26 | 30.71441 | 31.27456 | 33974 ft | 424 kts | 342° |
| 2026-04-28 16:27 | 30.77247 | 31.26384 | 33975 ft | 424 kts | 342° |
| 2026-04-28 16:28 | 30.86001 | 31.24765 | 33977 ft | 424 kts | 342° |
| 2026-04-28 16:28 | 30.91852 | 31.23680 | 33979 ft | 424 kts | 342° |
| 2026-04-28 16:29 | 31.00575 | 31.22060 | 33982 ft | 424 kts | 343° |
| 2026-04-28 16:30 | 31.09342 | 31.20430 | 33987 ft | 425 kts | 343° |
| 2026-04-28 16:30 | 31.15183 | 31.19341 | 33988 ft | 425 kts | 343° |
| 2026-04-28 16:31 | 31.21010 | 31.18253 | 33989 ft | 425 kts | 343° |
| 2026-04-28 16:31 | 31.26839 | 31.17165 | 33991 ft | 426 kts | 343° |
| 2026-04-28 16:32 | 31.32697 | 31.16071 | 33991 ft | 426 kts | 343° |
| 2026-04-28 16:32 | 31.41464 | 31.14428 | 33991 ft | 426 kts | 343° |
| 2026-04-28 16:33 | 31.46349 | 31.13510 | 33995 ft | 426 kts | 343° |
| 2026-04-28 16:33 | 31.53211 | 31.12272 | 34003 ft | 428 kts | 346° |
| 2026-04-28 16:34 | 31.59140 | 31.11599 | 34006 ft | 430 kts | 347° |
| 2026-04-28 16:34 | 31.65090 | 31.10973 | 34006 ft | 430 kts | 347° |
| 2026-04-28 16:35 | 31.71054 | 31.10338 | 34006 ft | 430 kts | 347° |
| 2026-04-28 16:35 | 31.77022 | 31.09699 | 34006 ft | 430 kts | 347° |
| 2026-04-28 16:36 | 31.82995 | 31.09057 | 34005 ft | 430 kts | 347° |
| 2026-04-28 16:36 | 31.88960 | 31.08416 | 34004 ft | 430 kts | 347° |
| 2026-04-28 16:37 | 31.94914 | 31.07775 | 34004 ft | 430 kts | 347° |
| 2026-04-28 16:38 | 32.03852 | 31.06810 | 34003 ft | 430 kts | 347° |
| 2026-04-28 16:38 | 32.09774 | 31.06165 | 34002 ft | 430 kts | 347° |
| 2026-04-28 16:39 | 32.15746 | 31.05507 | 34058 ft | 430 kts | 348° |
| 2026-04-28 16:39 | 32.21702 | 31.04848 | 34077 ft | 431 kts | 348° |
| 2026-04-28 16:40 | 32.27665 | 31.04192 | 34019 ft | 431 kts | 348° |
| 2026-04-28 16:40 | 32.33639 | 31.03535 | 34000 ft | 431 kts | 348° |
| 2026-04-28 16:41 | 32.39596 | 31.02878 | 33998 ft | 431 kts | 349° |
| 2026-04-28 16:41 | 32.45598 | 31.02215 | 33997 ft | 431 kts | 349° |
| 2026-04-28 16:42 | 32.51548 | 31.01556 | 34002 ft | 431 kts | 349° |
| 2026-04-28 16:42 | 32.57520 | 31.00893 | 34004 ft | 431 kts | 349° |
| 2026-04-28 16:43 | 32.63501 | 31.00230 | 34005 ft | 431 kts | 349° |
| 2026-04-28 16:43 | 32.69479 | 30.99565 | 34004 ft | 431 kts | 349° |
| 2026-04-28 16:44 | 32.75454 | 30.98900 | 34004 ft | 431 kts | 349° |
| 2026-04-28 16:44 | 32.81438 | 30.98232 | 34004 ft | 431 kts | 349° |
| 2026-04-28 16:45 | 32.87379 | 30.97568 | 34004 ft | 431 kts | 349° |
| 2026-04-28 16:45 | 32.93352 | 30.96899 | 34003 ft | 431 kts | 349° |
| 2026-04-28 16:46 | 32.99291 | 30.96232 | 34003 ft | 431 kts | 349° |
| 2026-04-28 16:46 | 33.05261 | 30.95562 | 34002 ft | 430 kts | 349° |
| 2026-04-28 16:47 | 33.11251 | 30.94984 | 34001 ft | 432 kts | 353° |
| 2026-04-28 16:47 | 33.17228 | 30.94745 | 34000 ft | 432 kts | 353° |
| 2026-04-28 16:48 | 33.23272 | 30.94528 | 33999 ft | 432 kts | 354° |
| 2026-04-28 16:48 | 33.29275 | 30.94311 | 33998 ft | 432 kts | 354° |
| 2026-04-28 16:49 | 33.35289 | 30.94088 | 33997 ft | 432 kts | 354° |
| 2026-04-28 16:49 | 33.41291 | 30.93862 | 33995 ft | 432 kts | 354° |
| 2026-04-28 16:50 | 33.47279 | 30.93635 | 33994 ft | 432 kts | 354° |
| 2026-04-28 16:50 | 33.53292 | 30.93406 | 33994 ft | 432 kts | 354° |
| 2026-04-28 16:51 | 33.59267 | 30.93180 | 33993 ft | 432 kts | 354° |
| 2026-04-28 16:51 | 33.65256 | 30.92953 | 33992 ft | 432 kts | 354° |
| 2026-04-28 16:52 | 33.71293 | 30.92723 | 33990 ft | 432 kts | 354° |
| 2026-04-28 16:52 | 33.77261 | 30.92496 | 33989 ft | 431 kts | 354° |
| 2026-04-28 16:53 | 33.83265 | 30.92267 | 33987 ft | 431 kts | 354° |
| 2026-04-28 16:53 | 33.89275 | 30.92036 | 33986 ft | 431 kts | 354° |
| 2026-04-28 16:54 | 33.95272 | 30.91806 | 33984 ft | 431 kts | 354° |
| 2026-04-28 16:54 | 34.01232 | 30.91495 | 33983 ft | 431 kts | 353° |
| 2026-04-28 16:55 | 34.07230 | 30.91150 | 34016 ft | 430 kts | 354° |
| 2026-04-28 16:55 | 34.13179 | 30.90813 | 34024 ft | 430 kts | 354° |
| 2026-04-28 16:56 | 34.19162 | 30.90481 | 33982 ft | 430 kts | 354° |
| 2026-04-28 16:56 | 34.25118 | 30.90152 | 33971 ft | 430 kts | 354° |
| 2026-04-28 16:57 | 34.31086 | 30.89862 | 33973 ft | 430 kts | 355° |
| 2026-04-28 16:57 | 34.37084 | 30.89573 | 33973 ft | 430 kts | 355° |
| 2026-04-28 16:58 | 34.43046 | 30.89282 | 33977 ft | 430 kts | 355° |
| 2026-04-28 16:58 | 34.49025 | 30.88987 | 33978 ft | 430 kts | 355° |
| 2026-04-28 16:59 | 34.55003 | 30.88691 | 33977 ft | 430 kts | 355° |
| 2026-04-28 16:59 | 34.60970 | 30.88397 | 33976 ft | 430 kts | 355° |
| 2026-04-28 17:00 | 34.66936 | 30.88173 | 33973 ft | 430 kts | 355° |
| 2026-04-28 17:00 | 34.72918 | 30.87988 | 33968 ft | 430 kts | 355° |
| 2026-04-28 17:01 | 34.78894 | 30.87796 | 33964 ft | 430 kts | 355° |
| 2026-04-28 17:01 | 34.84882 | 30.87600 | 33963 ft | 430 kts | 355° |
| 2026-04-28 17:02 | 34.90868 | 30.87401 | 33965 ft | 430 kts | 355° |
| 2026-04-28 17:02 | 34.96869 | 30.87201 | 33969 ft | 430 kts | 355° |
| 2026-04-28 17:03 | 35.05816 | 30.86900 | 33972 ft | 430 kts | 355° |
| 2026-04-28 17:03 | 35.11814 | 30.86698 | 33972 ft | 430 kts | 355° |
| 2026-04-28 17:04 | 35.20806 | 30.86399 | 33972 ft | 430 kts | 355° |
| 2026-04-28 17:05 | 35.29756 | 30.86101 | 33971 ft | 430 kts | 356° |
| 2026-04-28 17:06 | 35.38726 | 30.85801 | 33970 ft | 430 kts | 356° |
| 2026-04-28 17:06 | 35.47720 | 30.85498 | 33968 ft | 430 kts | 356° |
| 2026-04-28 17:07 | 35.53673 | 30.85296 | 33967 ft | 430 kts | 356° |
| 2026-04-28 17:07 | 35.59660 | 30.85094 | 33967 ft | 430 kts | 356° |
| 2026-04-28 17:08 | 35.65617 | 30.84821 | 33966 ft | 429 kts | 354° |
| 2026-04-28 17:08 | 35.71596 | 30.84447 | 33964 ft | 430 kts | 354° |
| 2026-04-28 17:09 | 35.77571 | 30.84078 | 33964 ft | 430 kts | 355° |
| 2026-04-28 17:09 | 35.83516 | 30.83717 | 33964 ft | 429 kts | 355° |
| 2026-04-28 17:10 | 35.89490 | 30.83355 | 33963 ft | 429 kts | 355° |
| 2026-04-28 17:10 | 35.95454 | 30.82993 | 33963 ft | 429 kts | 355° |
| 2026-04-28 17:11 | 36.01406 | 30.82632 | 33963 ft | 429 kts | 355° |
| 2026-04-28 17:11 | 36.07410 | 30.82329 | 33969 ft | 430 kts | 356° |
| 2026-04-28 17:12 | 36.13376 | 30.82149 | 33973 ft | 430 kts | 356° |
| 2026-04-28 17:12 | 36.19359 | 30.81962 | 33965 ft | 430 kts | 356° |
| 2026-04-28 17:13 | 36.25325 | 30.81766 | 33960 ft | 430 kts | 356° |
| 2026-04-28 17:13 | 36.31294 | 30.81566 | 33960 ft | 430 kts | 356° |
| 2026-04-28 17:14 | 36.37313 | 30.81364 | 33960 ft | 430 kts | 356° |
| 2026-04-28 17:14 | 36.43278 | 30.81164 | 33961 ft | 430 kts | 356° |
| 2026-04-28 17:15 | 36.49255 | 30.80960 | 33962 ft | 430 kts | 356° |
| 2026-04-28 17:15 | 36.55233 | 30.80755 | 33964 ft | 430 kts | 356° |
| 2026-04-28 17:16 | 36.61237 | 30.80547 | 33964 ft | 430 kts | 356° |
| 2026-04-28 17:16 | 36.67207 | 30.80342 | 33963 ft | 430 kts | 356° |
| 2026-04-28 17:17 | 36.73185 | 30.80136 | 33962 ft | 430 kts | 356° |
| 2026-04-28 17:17 | 36.79195 | 30.79926 | 33962 ft | 430 kts | 355° |
| 2026-04-28 17:18 | 36.85177 | 30.79716 | 33963 ft | 430 kts | 355° |
| 2026-04-28 17:18 | 36.91151 | 30.79508 | 33964 ft | 431 kts | 356° |
| 2026-04-28 17:19 | 36.97142 | 30.79525 | 33966 ft | 432 kts | 358° |
| 2026-04-28 17:19 | 37.03152 | 30.79614 | 33969 ft | 432 kts | 358° |
| 2026-04-28 17:20 | 37.08150 | 30.79685 | 33974 ft | 432 kts | 358° |
| 2026-04-28 17:20 | 37.15165 | 30.79778 | 33985 ft | 432 kts | 358° |
| 2026-04-28 17:21 | 37.21195 | 30.79855 | 33997 ft | 432 kts | 358° |
| 2026-04-28 17:22 | 37.30209 | 30.79972 | 33985 ft | 432 kts | 358° |
| 2026-04-28 17:22 | 37.36198 | 30.80050 | 33979 ft | 432 kts | 358° |
| 2026-04-28 17:23 | 37.45208 | 30.80167 | 33974 ft | 432 kts | 357° |
| 2026-04-28 17:23 | 37.51211 | 30.80243 | 33977 ft | 432 kts | 357° |
| 2026-04-28 17:24 | 37.57216 | 30.80320 | 33906 ft | 432 kts | 357° |
| 2026-04-28 17:24 | 37.63244 | 30.80398 | 34023 ft | 432 kts | 357° |
| 2026-04-28 17:25 | 37.72235 | 30.80516 | 34161 ft | 432 kts | 357° |
| 2026-04-28 17:26 | 37.78262 | 30.80594 | 34216 ft | 432 kts | 357° |
| 2026-04-28 17:26 | 37.84248 | 30.80671 | 34269 ft | 432 kts | 357° |
| 2026-04-28 17:27 | 37.90266 | 30.80749 | 34228 ft | 432 kts | 357° |
| 2026-04-28 17:27 | 37.96282 | 30.80827 | 34170 ft | 432 kts | 357° |
| 2026-04-28 17:28 | 38.02268 | 30.80904 | 34120 ft | 435 kts | 357° |
| 2026-04-28 17:28 | 38.08385 | 30.80983 | 34336 ft | 439 kts | 357° |
| 2026-04-28 17:28 | 38.11390 | 30.80971 | 34535 ft | 437 kts | 355° |
| 2026-04-28 17:29 | 38.14439 | 30.80755 | 34735 ft | 435 kts | 351° |
| 2026-04-28 17:29 | 38.17411 | 30.80343 | 34919 ft | 433 kts | 349° |
| 2026-04-28 17:29 | 38.20418 | 30.79855 | 35108 ft | 433 kts | 349° |
| 2026-04-28 17:30 | 38.26408 | 30.78852 | 35514 ft | 433 kts | 349° |
| 2026-04-28 17:30 | 38.32361 | 30.77859 | 35886 ft | 431 kts | 349° |
| 2026-04-28 17:30 | 38.35315 | 30.77370 | 36015 ft | 431 kts | 349° |
| 2026-04-28 17:31 | 38.44219 | 30.75896 | 36054 ft | 431 kts | 349° |
| 2026-04-28 17:32 | 38.53159 | 30.74411 | 36059 ft | 430 kts | 349° |
| 2026-04-28 17:32 | 38.59073 | 30.73427 | 36051 ft | 430 kts | 349° |
| 2026-04-28 17:33 | 38.65010 | 30.72436 | 36043 ft | 430 kts | 349° |
| 2026-04-28 17:33 | 38.69946 | 30.71611 | 36039 ft | 430 kts | 349° |
| 2026-04-28 17:34 | 38.76865 | 30.70449 | 36034 ft | 430 kts | 348° |
| 2026-04-28 17:34 | 38.82706 | 30.68972 | 36044 ft | 427 kts | 342° |
| 2026-04-28 17:35 | 38.88351 | 30.66661 | 36059 ft | 423 kts | 335° |
| 2026-04-28 17:35 | 38.93681 | 30.63596 | 36071 ft | 421 kts | 330° |
| 2026-04-28 17:36 | 38.98906 | 30.60189 | 36075 ft | 421 kts | 330° |
| 2026-04-28 17:36 | 39.04102 | 30.56785 | 36069 ft | 421 kts | 330° |
| 2026-04-28 17:37 | 39.09343 | 30.53354 | 36060 ft | 421 kts | 330° |
| 2026-04-28 17:37 | 39.14583 | 30.49923 | 36053 ft | 421 kts | 330° |
| 2026-04-28 17:38 | 39.19795 | 30.46506 | 36052 ft | 421 kts | 330° |
| 2026-04-28 17:38 | 39.24994 | 30.43091 | 36057 ft | 421 kts | 330° |
| 2026-04-28 17:39 | 39.30216 | 30.39655 | 36065 ft | 421 kts | 330° |
| 2026-04-28 17:40 | 39.38050 | 30.34488 | 36076 ft | 421 kts | 329° |
| 2026-04-28 17:40 | 39.43222 | 30.31067 | 36081 ft | 420 kts | 329° |
| 2026-04-28 17:41 | 39.48450 | 30.27612 | 36090 ft | 420 kts | 330° |
| 2026-04-28 17:41 | 39.53804 | 30.24555 | 36097 ft | 422 kts | 334° |
| 2026-04-28 17:42 | 39.59206 | 30.21683 | 36086 ft | 420 kts | 335° |
| 2026-04-28 17:42 | 39.64609 | 30.18807 | 36077 ft | 418 kts | 335° |
| 2026-04-28 17:43 | 39.69987 | 30.15935 | 36074 ft | 418 kts | 335° |
| 2026-04-28 17:43 | 39.75362 | 30.13057 | 36070 ft | 418 kts | 335° |
| 2026-04-28 17:44 | 39.80730 | 30.10177 | 36065 ft | 418 kts | 335° |
| 2026-04-28 17:44 | 39.86086 | 30.07295 | 36059 ft | 418 kts | 335° |
| 2026-04-28 17:45 | 39.91461 | 30.04398 | 36052 ft | 418 kts | 335° |
| 2026-04-28 17:45 | 39.96814 | 30.01511 | 36045 ft | 418 kts | 336° |
| 2026-04-28 17:46 | 40.02199 | 29.98610 | 36044 ft | 418 kts | 336° |
| 2026-04-28 17:46 | 40.07557 | 29.95715 | 36047 ft | 418 kts | 336° |